This is the latest recevied weather packets stored in our database for station/object N5ZP. If no packets are shown the sender has not sent any weather packets the latest 10 day(s).
| Time | Temp. | Humidity | Pressure | Rain* | Wind** | Luminosity | Snow |
|---|---|---|---|---|---|---|---|
| 1777913903 | 25° C | 60% | 1008.4 hPa | 0 mm | - | 670 W/m² | - |
| 1777913599 | 25.56° C | 57% | 1008.6 hPa | 0 mm | - | 272 W/m² | - |
| 1777913295 | 25.56° C | 58% | 1008.5 hPa | 0 mm | - | 690 W/m² | - |
| 1777912993 | 25.56° C | 58% | 1008.6 hPa | 0 mm | - | 718 W/m² | - |
| 1777912689 | 25° C | 57% | 1008.7 hPa | 0 mm | - | 685 W/m² | - |
| 1777912385 | 25° C | 59% | 1008.5 hPa | 0 mm | - | 669 W/m² | - |
| 1777912081 | 25° C | 57% | 1008.6 hPa | 0 mm | - | 623 W/m² | - |
| 1777911777 | 25° C | 59% | 1008.8 hPa | 0 mm | - | 653 W/m² | - |
| 1777911474 | 25° C | 58% | 1008.6 hPa | 0 mm | - | 657 W/m² | - |
| 1777911171 | 24.44° C | 60% | 1008.4 hPa | 0 mm | - | 678 W/m² | - |
| 1777910869 | 23.89° C | 60% | 1008.7 hPa | 0 mm | - | 616 W/m² | - |
| 1777910564 | 23.89° C | 61% | 1008.8 hPa | 0 mm | - | 598 W/m² | - |
| 1777910262 | 23.89° C | 60% | 1008.9 hPa | 0 mm | - | 614 W/m² | - |
| 1777909959 | 23.33° C | 62% | 1008.7 hPa | 0 mm | - | 535 W/m² | - |
| 1777909656 | 23.33° C | 62% | 1008.8 hPa | 0 mm | - | 586 W/m² | - |
| 1777909353 | 22.78° C | 62% | 1008.9 hPa | 0 mm | - | 542 W/m² | - |
| 1777909051 | 22.78° C | 63% | 1008.9 hPa | 0 mm | - | 461 W/m² | - |
| 1777908748 | 22.22° C | 64% | 1009.2 hPa | 0 mm | - | 516 W/m² | - |
| 1777908445 | 21.67° C | 66% | 1009.2 hPa | 0 mm | - | 574 W/m² | - |
| 1777908142 | 21.67° C | 66% | 1009.1 hPa | 0 mm | - | 385 W/m² | - |
| 1777907838 | 22.22° C | 62% | 1009.1 hPa | 0 mm | - | 218 W/m² | - |
| 1777907534 | 21.67° C | 64% | 1009.2 hPa | 0 mm | - | 562 W/m² | - |
| 1777907230 | 21.67° C | 65% | 1009.2 hPa | 0 mm | - | 482 W/m² | - |
| 1777906927 | 21.67° C | 64% | 1009.3 hPa | 0 mm | - | 447 W/m² | - |
| 1777906625 | 21.11° C | 66% | 1009.3 hPa | 0 mm | - | 472 W/m² | - |
* Rain latest hour (hover to see other rain measurements)
** Current wind speed in m/s (hover to see current wind gust speed)